Lebanon, OR

9:42 PM PDT on April 26, 2017 (GMT -0700)
W Rose St | | Change Station

Elev 351 ft 44.54 °N, 122.91 °W | Updated 4 seconds ago

Mostly Cloudy
Mostly Cloudy
47.7 °F
Feels Like 46 °F
N
3.8
Wind Variable Wind from North
Gusts 8.3 mph

Today
High -- | Low -- °F
--% Chance of Precip.
Yesterday
High -- | Low -- °F
Precip. -- in
Pressure 30.12 in
Visibility 10.0 miles
Clouds Few 3800 ft
Mostly Cloudy 5000 ft
Windchill 46 °F
Dew Point 45 °F
Humidity 89%
Rainfall 0.30 in
Snow Depth Not available.
6:08 AM 8:10 PM
New Moon, 1% visible
METAR KCVO 270435Z 00000KT 10SM FEW038 BKN050 08/05 A3012 RMK AO1
Pressure 30.12 in
Visibility 10.0 miles
Clouds Few 3800 ft
Mostly Cloudy 5000 ft
Windchill 46 °F
Dew Point 45 °F
Humidity 89%
Rainfall 0.30 in
Snow Depth Not available.
6:08 AM 8:10 PM
New Moon, 1% visible
METAR KCVO 270435Z 00000KT 10SM FEW038 BKN050 08/05 A3012 RMK AO1

Get Severe Weather Alerts

Thanks for signing up!

Be on the lookout for a verification email in your inbox.

You'll start receiving the daily forecast at 8 AM.

×

10-Day Weather Forecast

Almanac

Astronomy

Apr. 26, 2017 Rise Set
Actual Time
Civil Twilight
Nautical Twilight
Astronomical Twilight
Moon
Length of Visible Light
Length of Day
Tomorrow will be .
, % of the Moon is Illuminated

Today's Extremes

State Highs State Lows

Community

WunderPhotos

WunderBlog® & News

Nearby

Air Quality

  Air Quality AQ Index Pollutant
Not available.

Snow Depth

Station Depth Elevation

Earthquake Activity

City Distance Mag. Time & Date
Minimum magnitude displayed is 2.5.

Coastal Water Temperatures

Place Temperature

Stations

Nearby Weather Stations

Station Location Temp. Windchill Dew Point Humidity Wind Precip. Elev Updated Type
                   

Watches & Warnings

There are currently no watches in effect.